sensor_id;sensor_type;location;lat;lon;timestamp;pressure;altitude;pressure_sealevel;temperature;humidity
51053;BME280;37093;37.716;-122.060;2023-02-27T00:00:36;99887.09;;;10.64;60.32
51053;BME280;37093;37.716;-122.060;2023-02-27T00:03:05;99881.36;;;10.30;59.09
51053;BME280;37093;37.716;-122.060;2023-02-27T00:05:33;99890.32;;;10.02;63.16
51053;BME280;37093;37.716;-122.060;2023-02-27T00:08:02;99893.05;;;9.83;61.26
51053;BME280;37093;37.716;-122.060;2023-02-27T00:10:30;99895.03;;;10.48;59.73
51053;BME280;37093;37.716;-122.060;2023-02-27T00:12:59;99891.39;;;10.47;61.83
51053;BME280;37093;37.716;-122.060;2023-02-27T00:15:28;99895.43;;;9.71;62.44
51053;BME280;37093;37.716;-122.060;2023-02-27T00:17:56;99897.94;;;10.58;59.38
51053;BME280;37093;37.716;-122.060;2023-02-27T00:20:27;99895.27;;;10.68;59.72
51053;BME280;37093;37.716;-122.060;2023-02-27T00:22:55;99895.40;;;11.29;58.37
51053;BME280;37093;37.716;-122.060;2023-02-27T00:25:24;99892.25;;;11.21;58.26
51053;BME280;37093;37.716;-122.060;2023-02-27T00:27:52;99889.65;;;11.15;58.17
51053;BME280;37093;37.716;-122.060;2023-02-27T00:30:21;99883.98;;;10.81;58.50
51053;BME280;37093;37.716;-122.060;2023-02-27T00:32:49;99885.80;;;10.92;57.93
51053;BME280;37093;37.716;-122.060;2023-02-27T00:35:19;99881.17;;;11.28;57.00
51053;BME280;37093;37.716;-122.060;2023-02-27T00:37:48;99888.40;;;11.15;57.86
51053;BME280;37093;37.716;-122.060;2023-02-27T00:40:16;99892.50;;;10.56;59.18
51053;BME280;37093;37.716;-122.060;2023-02-27T00:42:45;99888.11;;;10.59;59.92
51053;BME280;37093;37.716;-122.060;2023-02-27T00:45:13;99887.57;;;9.82;61.72
51053;BME280;37093;37.716;-122.060;2023-02-27T00:47:42;99880.61;;;10.70;59.70
51053;BME280;37093;37.716;-122.060;2023-02-27T00:50:11;99879.08;;;10.84;58.73
51053;BME280;37093;37.716;-122.060;2023-02-27T00:52:40;99874.55;;;10.19;60.80
51053;BME280;37093;37.716;-122.060;2023-02-27T00:55:09;99873.80;;;10.98;58.84
51053;BME280;37093;37.716;-122.060;2023-02-27T00:57:39;99875.93;;;10.49;59.74
51053;BME280;37093;37.716;-122.060;2023-02-27T01:00:09;99874.71;;;10.99;58.29
51053;BME280;37093;37.716;-122.060;2023-02-27T01:02:37;99869.14;;;10.57;59.75
51053;BME280;37093;37.716;-122.060;2023-02-27T01:05:07;99873.15;;;10.93;57.89
51053;BME280;37093;37.716;-122.060;2023-02-27T01:07:35;99877.20;;;10.39;61.08
51053;BME280;37093;37.716;-122.060;2023-02-27T01:10:05;99884.64;;;10.04;61.00
51053;BME280;37093;37.716;-122.060;2023-02-27T01:12:33;99886.18;;;11.11;58.52
51053;BME280;37093;37.716;-122.060;2023-02-27T01:15:02;99888.36;;;11.16;56.85
51053;BME280;37093;37.716;-122.060;2023-02-27T01:17:30;99885.99;;;11.40;56.14
51053;BME280;37093;37.716;-122.060;2023-02-27T01:19:59;99889.77;;;11.52;57.12
51053;BME280;37093;37.716;-122.060;2023-02-27T01:22:28;99891.55;;;11.59;56.39
51053;BME280;37093;37.716;-122.060;2023-02-27T01:24:56;99893.76;;;11.70;56.68
51053;BME280;37093;37.716;-122.060;2023-02-27T01:27:25;99888.67;;;11.47;56.54
51053;BME280;37093;37.716;-122.060;2023-02-27T01:29:53;99889.53;;;11.51;59.11
51053;BME280;37093;37.716;-122.060;2023-02-27T01:32:22;99888.32;;;10.52;59.77
51053;BME280;37093;37.716;-122.060;2023-02-27T01:34:51;99880.36;;;10.98;59.42
51053;BME280;37093;37.716;-122.060;2023-02-27T01:37:19;99878.88;;;11.12;58.93
51053;BME280;37093;37.716;-122.060;2023-02-27T01:39:48;99871.06;;;11.53;57.18
51053;BME280;37093;37.716;-122.060;2023-02-27T01:42:19;99875.20;;;11.43;57.37
51053;BME280;37093;37.716;-122.060;2023-02-27T01:45:53;99869.85;;;11.15;57.67
51053;BME280;37093;37.716;-122.060;2023-02-27T01:48:27;99863.18;;;10.87;58.01
51053;BME280;37093;37.716;-122.060;2023-02-27T01:50:59;99863.28;;;10.17;61.11
51053;BME280;37093;37.716;-122.060;2023-02-27T01:53:30;99864.77;;;11.03;57.87
51053;BME280;37093;37.716;-122.060;2023-02-27T01:56:03;99865.85;;;11.41;57.77
51053;BME280;37093;37.716;-122.060;2023-02-27T01:58:33;99863.47;;;11.42;58.26
51053;BME280;37093;37.716;-122.060;2023-02-27T02:01:02;99860.47;;;11.49;56.22
51053;BME280;37093;37.716;-122.060;2023-02-27T02:03:42;99856.29;;;11.35;56.64
51053;BME280;37093;37.716;-122.060;2023-02-27T02:06:13;99856.99;;;10.50;60.42
51053;BME280;37093;37.716;-122.060;2023-02-27T02:08:44;99867.00;;;10.08;61.05
51053;BME280;37093;37.716;-122.060;2023-02-27T02:11:15;99868.96;;;11.03;58.77
51053;BME280;37093;37.716;-122.060;2023-02-27T02:13:46;99873.53;;;11.37;57.36
51053;BME280;37093;37.716;-122.060;2023-02-27T02:16:36;99870.95;;;11.51;57.63
51053;BME280;37093;37.716;-122.060;2023-02-27T02:19:24;99870.12;;;10.58;58.33
51053;BME280;37093;37.716;-122.060;2023-02-27T02:26:23;99894.36;;;10.54;64.33
51053;BME280;37093;37.716;-122.060;2023-02-27T02:29:12;99893.48;;;9.79;61.41
51053;BME280;37093;37.716;-122.060;2023-02-27T02:32:02;99896.38;;;10.14;60.71
51053;BME280;37093;37.716;-122.060;2023-02-27T02:34:56;99899.76;;;9.92;60.58
51053;BME280;37093;37.716;-122.060;2023-02-27T02:38:46;99904.15;;;10.31;60.27
51053;BME280;37093;37.716;-122.060;2023-02-27T02:41:25;99913.35;;;10.42;60.67
51053;BME280;37093;37.716;-122.060;2023-02-27T02:44:06;99919.99;;;10.28;59.83
51053;BME280;37093;37.716;-122.060;2023-02-27T02:46:44;99921.36;;;10.58;58.78
51053;BME280;37093;37.716;-122.060;2023-02-27T02:49:17;99926.71;;;10.30;59.64
51053;BME280;37093;37.716;-122.060;2023-02-27T02:51:54;99928.70;;;10.35;59.25
51053;BME280;37093;37.716;-122.060;2023-02-27T02:54:36;99926.49;;;10.65;57.76
51053;BME280;37093;37.716;-122.060;2023-02-27T02:57:11;99928.14;;;10.33;57.74
51053;BME280;37093;37.716;-122.060;2023-02-27T02:59:46;99935.64;;;10.50;58.30
51053;BME280;37093;37.716;-122.060;2023-02-27T03:02:20;99937.22;;;10.58;57.87
51053;BME280;37093;37.716;-122.060;2023-02-27T03:04:54;99935.90;;;10.41;58.40
51053;BME280;37093;37.716;-122.060;2023-02-27T03:07:29;99944.10;;;9.75;59.79
51053;BME280;37093;37.716;-122.060;2023-02-27T03:10:03;99938.13;;;10.33;56.48
51053;BME280;37093;37.716;-122.060;2023-02-27T03:12:37;99940.50;;;10.86;54.84
51053;BME280;37093;37.716;-122.060;2023-02-27T03:15:12;99945.25;;;10.47;55.38
51053;BME280;37093;37.716;-122.060;2023-02-27T03:17:44;99941.58;;;10.73;54.46
51053;BME280;37093;37.716;-122.060;2023-02-27T03:20:19;99939.60;;;10.84;54.17
51053;BME280;37093;37.716;-122.060;2023-02-27T03:22:54;99939.81;;;11.01;52.79
51053;BME280;37093;37.716;-122.060;2023-02-27T03:25:25;99947.23;;;11.15;52.17
51053;BME280;37093;37.716;-122.060;2023-02-27T03:27:58;99950.39;;;11.47;51.40
51053;BME280;37093;37.716;-122.060;2023-02-27T03:30:31;99952.90;;;11.48;51.87
51053;BME280;37093;37.716;-122.060;2023-02-27T03:33:07;99950.62;;;12.02;51.36
51053;BME280;37093;37.716;-122.060;2023-02-27T03:35:45;99953.60;;;11.80;50.79
51053;BME280;37093;37.716;-122.060;2023-02-27T03:38:19;99955.77;;;11.91;50.74
51053;BME280;37093;37.716;-122.060;2023-02-27T03:40:57;99958.39;;;11.96;50.40
51053;BME280;37093;37.716;-122.060;2023-02-27T03:43:36;99958.82;;;12.08;49.47
51053;BME280;37093;37.716;-122.060;2023-02-27T03:46:11;99961.04;;;11.85;50.46
51053;BME280;37093;37.716;-122.060;2023-02-27T03:48:41;99965.70;;;11.57;50.35
51053;BME280;37093;37.716;-122.060;2023-02-27T03:51:11;99966.48;;;11.98;49.70
51053;BME280;37093;37.716;-122.060;2023-02-27T03:53:45;99968.35;;;12.36;50.09
51053;BME280;37093;37.716;-122.060;2023-02-27T03:56:17;99968.14;;;12.39;49.48
51053;BME280;37093;37.716;-122.060;2023-02-27T03:58:47;99962.79;;;12.60;48.98
51053;BME280;37093;37.716;-122.060;2023-02-27T04:01:17;99966.31;;;12.70;48.77
51053;BME280;37093;37.716;-122.060;2023-02-27T04:03:53;99961.85;;;12.25;49.00
51053;BME280;37093;37.716;-122.060;2023-02-27T04:07:34;99966.25;;;12.76;48.70
51053;BME280;37093;37.716;-122.060;2023-02-27T04:10:33;99968.03;;;12.24;48.49
51053;BME280;37093;37.716;-122.060;2023-02-27T04:13:27;99973.76;;;12.42;48.65
51053;BME280;37093;37.716;-122.060;2023-02-27T04:16:14;99979.34;;;12.18;49.19
51053;BME280;37093;37.716;-122.060;2023-02-27T04:18:57;99981.93;;;11.68;49.11
51053;BME280;37093;37.716;-122.060;2023-02-27T04:21:35;99987.70;;;11.96;49.55
51053;BME280;37093;37.716;-122.060;2023-02-27T04:24:14;99987.59;;;11.51;49.81
51053;BME280;37093;37.716;-122.060;2023-02-27T04:26:50;99989.17;;;11.76;48.75
51053;BME280;37093;37.716;-122.060;2023-02-27T04:29:24;99985.86;;;11.82;49.17
51053;BME280;37093;37.716;-122.060;2023-02-27T04:32:00;99989.25;;;12.03;48.72
51053;BME280;37093;37.716;-122.060;2023-02-27T04:34:35;99981.21;;;12.11;48.81
51053;BME280;37093;37.716;-122.060;2023-02-27T04:37:09;99982.41;;;12.24;48.11
51053;BME280;37093;37.716;-122.060;2023-02-27T04:39:45;99984.56;;;12.15;48.19
51053;BME280;37093;37.716;-122.060;2023-02-27T04:42:19;99987.54;;;12.20;48.03
51053;BME280;37093;37.716;-122.060;2023-02-27T04:44:50;99992.04;;;11.88;47.88
51053;BME280;37093;37.716;-122.060;2023-02-27T04:47:19;99993.31;;;12.08;47.73
51053;BME280;37093;37.716;-122.060;2023-02-27T04:49:53;99993.27;;;12.01;48.07
51053;BME280;37093;37.716;-122.060;2023-02-27T04:52:27;99995.51;;;12.11;47.56
51053;BME280;37093;37.716;-122.060;2023-02-27T04:55:01;99998.27;;;12.08;47.99
51053;BME280;37093;37.716;-122.060;2023-02-27T04:57:36;99994.36;;;12.12;47.49
51053;BME280;37093;37.716;-122.060;2023-02-27T05:00:11;99994.50;;;12.13;47.92
51053;BME280;37093;37.716;-122.060;2023-02-27T05:02:44;99991.12;;;12.14;47.06
51053;BME280;37093;37.716;-122.060;2023-02-27T05:05:17;99994.54;;;12.08;46.83
51053;BME280;37093;37.716;-122.060;2023-02-27T05:07:51;99997.56;;;12.03;46.17
51053;BME280;37093;37.716;-122.060;2023-02-27T05:10:27;100000.88;;;11.83;46.34
51053;BME280;37093;37.716;-122.060;2023-02-27T05:13:01;99993.48;;;11.81;47.06
51053;BME280;37093;37.716;-122.060;2023-02-27T05:15:34;99998.43;;;11.78;46.84
51053;BME280;37093;37.716;-122.060;2023-02-27T05:18:05;100006.79;;;11.72;46.37
51053;BME280;37093;37.716;-122.060;2023-02-27T05:20:42;100010.12;;;11.88;47.09
51053;BME280;37093;37.716;-122.060;2023-02-27T05:23:22;100004.18;;;11.47;46.88
51053;BME280;37093;37.716;-122.060;2023-02-27T05:25:57;100012.87;;;11.54;46.73
51053;BME280;37093;37.716;-122.060;2023-02-27T05:28:32;100019.89;;;11.71;46.78
51053;BME280;37093;37.716;-122.060;2023-02-27T05:31:08;100029.01;;;11.49;46.91
51053;BME280;37093;37.716;-122.060;2023-02-27T05:33:44;100030.08;;;11.71;47.03
51053;BME280;37093;37.716;-122.060;2023-02-27T05:36:17;100027.65;;;11.42;46.68
51053;BME280;37093;37.716;-122.060;2023-02-27T05:38:52;100021.42;;;11.37;46.34
51053;BME280;37093;37.716;-122.060;2023-02-27T05:41:24;100015.49;;;11.36;46.51
51053;BME280;37093;37.716;-122.060;2023-02-27T05:43:59;100020.29;;;11.19;47.51
51053;BME280;37093;37.716;-122.060;2023-02-27T05:46:32;100019.58;;;11.42;45.34
51053;BME280;37093;37.716;-122.060;2023-02-27T05:49:06;100021.57;;;11.16;46.80
51053;BME280;37093;37.716;-122.060;2023-02-27T05:51:38;100023.90;;;11.17;46.29
51053;BME280;37093;37.716;-122.060;2023-02-27T05:54:12;100024.47;;;11.07;47.03
51053;BME280;37093;37.716;-122.060;2023-02-27T05:56:46;100023.49;;;11.34;46.39
51053;BME280;37093;37.716;-122.060;2023-02-27T05:59:23;100024.69;;;11.18;45.96
51053;BME280;37093;37.716;-122.060;2023-02-27T06:01:54;100028.28;;;11.09;46.76
51053;BME280;37093;37.716;-122.060;2023-02-27T06:04:23;100024.84;;;11.14;46.53
51053;BME280;37093;37.716;-122.060;2023-02-27T06:06:51;100030.93;;;10.87;46.77
51053;BME280;37093;37.716;-122.060;2023-02-27T06:09:19;100030.88;;;11.07;46.77
51053;BME280;37093;37.716;-122.060;2023-02-27T06:11:47;100030.51;;;11.07;46.75
51053;BME280;37093;37.716;-122.060;2023-02-27T06:14:16;100032.16;;;10.97;46.37
51053;BME280;37093;37.716;-122.060;2023-02-27T06:16:45;100030.69;;;10.75;46.76
51053;BME280;37093;37.716;-122.060;2023-02-27T06:19:13;100027.79;;;10.78;46.79
51053;BME280;37093;37.716;-122.060;2023-02-27T06:21:41;100025.35;;;10.76;46.27
51053;BME280;37093;37.716;-122.060;2023-02-27T06:24:10;100026.05;;;10.75;46.07
51053;BME280;37093;37.716;-122.060;2023-02-27T06:26:38;100025.76;;;10.92;46.45
51053;BME280;37093;37.716;-122.060;2023-02-27T06:29:07;100027.88;;;10.97;46.52
51053;BME280;37093;37.716;-122.060;2023-02-27T06:31:35;100028.31;;;10.90;45.98
51053;BME280;37093;37.716;-122.060;2023-02-27T06:34:04;100030.39;;;10.87;46.71
51053;BME280;37093;37.716;-122.060;2023-02-27T06:36:32;100024.59;;;10.84;46.62
51053;BME280;37093;37.716;-122.060;2023-02-27T06:39:01;100026.37;;;10.84;46.55
51053;BME280;37093;37.716;-122.060;2023-02-27T06:41:29;100023.12;;;10.85;46.91
51053;BME280;37093;37.716;-122.060;2023-02-27T06:43:57;100026.63;;;10.90;46.84
51053;BME280;37093;37.716;-122.060;2023-02-27T06:46:26;100028.73;;;10.85;46.31
51053;BME280;37093;37.716;-122.060;2023-02-27T06:48:55;100036.39;;;10.72;46.27
51053;BME280;37093;37.716;-122.060;2023-02-27T06:51:23;100041.11;;;10.69;46.34
51053;BME280;37093;37.716;-122.060;2023-02-27T06:53:52;100042.71;;;10.67;46.28
51053;BME280;37093;37.716;-122.060;2023-02-27T06:56:20;100035.67;;;10.60;45.89
51053;BME280;37093;37.716;-122.060;2023-02-27T06:58:49;100039.51;;;10.51;46.04
51053;BME280;37093;37.716;-122.060;2023-02-27T07:01:17;100041.45;;;10.46;46.36
51053;BME280;37093;37.716;-122.060;2023-02-27T07:03:46;100040.35;;;10.51;46.12
51053;BME280;37093;37.716;-122.060;2023-02-27T07:06:15;100045.41;;;10.29;45.53
51053;BME280;37093;37.716;-122.060;2023-02-27T07:08:44;100044.45;;;9.83;45.84
51053;BME280;37093;37.716;-122.060;2023-02-27T07:11:13;100047.80;;;9.94;46.41
51053;BME280;37093;37.716;-122.060;2023-02-27T07:13:41;100044.56;;;10.12;46.63
51053;BME280;37093;37.716;-122.060;2023-02-27T07:16:09;100042.28;;;10.09;45.83
51053;BME280;37093;37.716;-122.060;2023-02-27T07:18:38;100042.74;;;10.26;46.04
51053;BME280;37093;37.716;-122.060;2023-02-27T07:21:06;100042.25;;;10.05;46.94
51053;BME280;37093;37.716;-122.060;2023-02-27T07:23:35;100040.51;;;10.31;46.61
51053;BME280;37093;37.716;-122.060;2023-02-27T07:26:04;100042.29;;;10.12;46.53
51053;BME280;37093;37.716;-122.060;2023-02-27T07:28:33;100037.60;;;10.32;46.23
51053;BME280;37093;37.716;-122.060;2023-02-27T07:31:01;100038.74;;;10.07;46.93
51053;BME280;37093;37.716;-122.060;2023-02-27T07:33:29;100037.31;;;10.13;47.39
51053;BME280;37093;37.716;-122.060;2023-02-27T07:35:58;100041.89;;;10.19;47.21
51053;BME280;37093;37.716;-122.060;2023-02-27T07:38:27;100041.43;;;10.17;47.44
51053;BME280;37093;37.716;-122.060;2023-02-27T07:40:55;100041.68;;;10.22;47.43
51053;BME280;37093;37.716;-122.060;2023-02-27T07:43:24;100036.32;;;10.28;47.59
51053;BME280;37093;37.716;-122.060;2023-02-27T07:45:52;100044.02;;;10.33;47.56
51053;BME280;37093;37.716;-122.060;2023-02-27T07:48:21;100044.58;;;10.36;47.56
51053;BME280;37093;37.716;-122.060;2023-02-27T07:50:49;100054.14;;;10.52;47.78
51053;BME280;37093;37.716;-122.060;2023-02-27T07:53:18;100061.35;;;10.59;47.62
51053;BME280;37093;37.716;-122.060;2023-02-27T07:55:47;100065.47;;;10.53;47.59
51053;BME280;37093;37.716;-122.060;2023-02-27T07:58:15;100060.95;;;10.51;47.05
51053;BME280;37093;37.716;-122.060;2023-02-27T08:01:12;100059.01;;;9.52;47.46
51053;BME280;37093;37.716;-122.060;2023-02-27T08:03:41;100048.05;;;9.43;45.53
51053;BME280;37093;37.716;-122.060;2023-02-27T08:06:10;100041.77;;;10.89;44.65
51053;BME280;37093;37.716;-122.060;2023-02-27T08:08:40;100040.22;;;11.07;44.68
51053;BME280;37093;37.716;-122.060;2023-02-27T08:11:08;100048.15;;;10.35;45.70
51053;BME280;37093;37.716;-122.060;2023-02-27T08:13:37;100045.56;;;10.29;45.37
51053;BME280;37093;37.716;-122.060;2023-02-27T08:16:06;100045.14;;;10.11;45.70
51053;BME280;37093;37.716;-122.060;2023-02-27T08:18:35;100046.17;;;9.95;46.46
51053;BME280;37093;37.716;-122.060;2023-02-27T08:21:04;100047.78;;;10.22;47.16
51053;BME280;37093;37.716;-122.060;2023-02-27T08:23:32;100053.50;;;10.00;46.71
51053;BME280;37093;37.716;-122.060;2023-02-27T08:26:01;100054.17;;;10.30;46.88
51053;BME280;37093;37.716;-122.060;2023-02-27T08:28:29;100050.59;;;9.87;47.07
51053;BME280;37093;37.716;-122.060;2023-02-27T08:30:58;100051.87;;;9.87;47.23
51053;BME280;37093;37.716;-122.060;2023-02-27T08:33:26;100053.53;;;10.43;47.43
51053;BME280;37093;37.716;-122.060;2023-02-27T08:35:55;100055.04;;;9.98;47.56
51053;BME280;37093;37.716;-122.060;2023-02-27T08:38:24;100058.38;;;10.22;47.12
51053;BME280;37093;37.716;-122.060;2023-02-27T08:40:52;100054.24;;;9.71;47.18
51053;BME280;37093;37.716;-122.060;2023-02-27T08:43:22;100043.78;;;9.86;46.36
51053;BME280;37093;37.716;-122.060;2023-02-27T08:45:51;100043.34;;;10.02;47.15
51053;BME280;37093;37.716;-122.060;2023-02-27T08:48:20;100041.68;;;9.94;46.00
51053;BME280;37093;37.716;-122.060;2023-02-27T08:50:49;100038.29;;;9.36;46.60
51053;BME280;37093;37.716;-122.060;2023-02-27T08:53:17;100044.09;;;9.52;46.87
51053;BME280;37093;37.716;-122.060;2023-02-27T08:55:49;100047.90;;;9.70;46.51
51053;BME280;37093;37.716;-122.060;2023-02-27T08:58:18;100051.76;;;9.65;47.12
51053;BME280;37093;37.716;-122.060;2023-02-27T09:00:47;100052.86;;;9.63;47.08
51053;BME280;37093;37.716;-122.060;2023-02-27T09:03:15;100054.85;;;9.92;46.32
51053;BME280;37093;37.716;-122.060;2023-02-27T09:05:43;100057.52;;;9.79;47.22
51053;BME280;37093;37.716;-122.060;2023-02-27T09:08:12;100060.14;;;9.75;46.80
51053;BME280;37093;37.716;-122.060;2023-02-27T09:10:41;100060.61;;;9.76;47.33
51053;BME280;37093;37.716;-122.060;2023-02-27T09:13:10;100059.41;;;9.91;46.99
51053;BME280;37093;37.716;-122.060;2023-02-27T09:15:38;100058.96;;;9.50;47.32
51053;BME280;37093;37.716;-122.060;2023-02-27T09:18:08;100053.59;;;9.62;47.61
51053;BME280;37093;37.716;-122.060;2023-02-27T09:20:37;100053.12;;;9.89;47.33
51053;BME280;37093;37.716;-122.060;2023-02-27T09:23:05;100046.11;;;9.92;47.43
51053;BME280;37093;37.716;-122.060;2023-02-27T09:25:34;100037.02;;;9.65;47.83
51053;BME280;37093;37.716;-122.060;2023-02-27T09:28:03;100037.98;;;9.74;47.51
51053;BME280;37093;37.716;-122.060;2023-02-27T09:30:32;100041.63;;;9.37;47.05
51053;BME280;37093;37.716;-122.060;2023-02-27T09:33:01;100034.38;;;9.60;47.09
51053;BME280;37093;37.716;-122.060;2023-02-27T09:35:29;100031.85;;;9.64;47.01
51053;BME280;37093;37.716;-122.060;2023-02-27T09:37:58;100030.56;;;9.65;47.02
51053;BME280;37093;37.716;-122.060;2023-02-27T09:40:28;100036.90;;;9.66;47.23
51053;BME280;37093;37.716;-122.060;2023-02-27T09:42:59;100032.90;;;9.80;46.56
51053;BME280;37093;37.716;-122.060;2023-02-27T09:45:30;100027.57;;;9.08;46.97
51053;BME280;37093;37.716;-122.060;2023-02-27T09:48:02;100024.82;;;9.78;46.93
51053;BME280;37093;37.716;-122.060;2023-02-27T09:50:37;100018.31;;;9.48;46.91
51053;BME280;37093;37.716;-122.060;2023-02-27T09:53:10;100015.32;;;9.36;46.83
51053;BME280;37093;37.716;-122.060;2023-02-27T09:55:40;100010.63;;;9.72;47.14
51053;BME280;37093;37.716;-122.060;2023-02-27T09:58:25;100005.25;;;9.30;46.90
51053;BME280;37093;37.716;-122.060;2023-02-27T10:01:02;100007.53;;;9.19;46.98
51053;BME280;37093;37.716;-122.060;2023-02-27T10:03:47;100008.79;;;9.53;46.74
51053;BME280;37093;37.716;-122.060;2023-02-27T10:06:27;100009.97;;;9.48;46.71
51053;BME280;37093;37.716;-122.060;2023-02-27T10:09:08;100006.83;;;9.47;46.60
51053;BME280;37093;37.716;-122.060;2023-02-27T10:11:50;100005.25;;;9.59;46.60
51053;BME280;37093;37.716;-122.060;2023-02-27T10:14:34;100000.36;;;9.27;46.38
51053;BME280;37093;37.716;-122.060;2023-02-27T10:17:09;100001.58;;;9.54;46.71
51053;BME280;37093;37.716;-122.060;2023-02-27T10:19:42;99994.50;;;9.32;46.59
51053;BME280;37093;37.716;-122.060;2023-02-27T10:22:16;99993.25;;;9.12;46.35
51053;BME280;37093;37.716;-122.060;2023-02-27T10:24:49;99994.73;;;9.08;46.31
51053;BME280;37093;37.716;-122.060;2023-02-27T10:27:20;99992.13;;;9.24;46.86
51053;BME280;37093;37.716;-122.060;2023-02-27T10:29:49;99989.01;;;9.28;46.41
51053;BME280;37093;37.716;-122.060;2023-02-27T10:32:20;99988.73;;;9.08;46.55
51053;BME280;37093;37.716;-122.060;2023-02-27T10:34:53;99982.35;;;9.17;47.08
51053;BME280;37093;37.716;-122.060;2023-02-27T10:37:24;99980.31;;;9.04;46.90
51053;BME280;37093;37.716;-122.060;2023-02-27T10:39:56;99982.25;;;9.07;46.78
51053;BME280;37093;37.716;-122.060;2023-02-27T10:42:29;99982.76;;;9.14;46.53
51053;BME280;37093;37.716;-122.060;2023-02-27T10:44:59;99981.99;;;9.15;46.37
51053;BME280;37093;37.716;-122.060;2023-02-27T10:47:28;99979.57;;;9.08;46.57
51053;BME280;37093;37.716;-122.060;2023-02-27T10:49:57;99978.23;;;9.14;47.05
51053;BME280;37093;37.716;-122.060;2023-02-27T10:52:25;99980.13;;;9.13;46.40
51053;BME280;37093;37.716;-122.060;2023-02-27T10:54:54;99973.94;;;8.95;47.28
51053;BME280;37093;37.716;-122.060;2023-02-27T10:57:27;99975.81;;;9.23;47.03
51053;BME280;37093;37.716;-122.060;2023-02-27T10:59:59;99969.09;;;9.11;46.75
51053;BME280;37093;37.716;-122.060;2023-02-27T11:02:32;99968.67;;;9.07;46.33
51053;BME280;37093;37.716;-122.060;2023-02-27T11:05:04;99966.55;;;8.93;46.86
51053;BME280;37093;37.716;-122.060;2023-02-27T11:07:36;99963.32;;;8.68;46.61
51053;BME280;37093;37.716;-122.060;2023-02-27T11:10:16;99963.00;;;8.86;46.78
51053;BME280;37093;37.716;-122.060;2023-02-27T11:13:00;99961.24;;;9.07;47.01
51053;BME280;37093;37.716;-122.060;2023-02-27T11:15:30;99961.43;;;8.80;46.58
51053;BME280;37093;37.716;-122.060;2023-02-27T11:18:31;99956.19;;;9.15;46.42
51053;BME280;37093;37.716;-122.060;2023-02-27T11:21:20;99952.61;;;8.66;46.89
51053;BME280;37093;37.716;-122.060;2023-02-27T11:23:56;99958.39;;;8.52;47.08
51053;BME280;37093;37.716;-122.060;2023-02-27T11:26:28;99956.52;;;8.65;46.67
51053;BME280;37093;37.716;-122.060;2023-02-27T11:29:16;99948.57;;;8.64;46.76
51053;BME280;37093;37.716;-122.060;2023-02-27T11:31:50;99945.60;;;8.34;47.31
51053;BME280;37093;37.716;-122.060;2023-02-27T11:34:23;99936.83;;;8.16;47.42
51053;BME280;37093;37.716;-122.060;2023-02-27T11:36:55;99936.08;;;8.09;48.34
51053;BME280;37093;37.716;-122.060;2023-02-27T11:39:29;99937.08;;;8.09;47.66
51053;BME280;37093;37.716;-122.060;2023-02-27T11:42:07;99937.76;;;8.98;47.60
51053;BME280;37093;37.716;-122.060;2023-02-27T11:44:39;99935.62;;;8.64;47.30
51053;BME280;37093;37.716;-122.060;2023-02-27T11:47:19;99935.43;;;8.96;47.06
51053;BME280;37093;37.716;-122.060;2023-02-27T11:50:08;99926.53;;;8.29;47.76
51053;BME280;37093;37.716;-122.060;2023-02-27T11:52:43;99924.78;;;8.50;47.29
51053;BME280;37093;37.716;-122.060;2023-02-27T11:55:17;99916.26;;;8.58;47.31
51053;BME280;37093;37.716;-122.060;2023-02-27T11:57:51;99914.90;;;8.75;47.21
51053;BME280;37093;37.716;-122.060;2023-02-27T12:00:24;99908.88;;;8.74;47.13
51053;BME280;37093;37.716;-122.060;2023-02-27T12:03:01;99904.30;;;8.47;46.76
51053;BME280;37093;37.716;-122.060;2023-02-27T12:05:33;99895.33;;;8.50;47.77
51053;BME280;37093;37.716;-122.060;2023-02-27T12:08:10;99896.57;;;8.28;47.76
51053;BME280;37093;37.716;-122.060;2023-02-27T12:10:46;99893.24;;;8.24;47.37
51053;BME280;37093;37.716;-122.060;2023-02-27T12:13:20;99893.14;;;8.28;48.12
51053;BME280;37093;37.716;-122.060;2023-02-27T12:15:55;99894.36;;;7.52;50.21
51053;BME280;37093;37.716;-122.060;2023-02-27T12:18:32;99890.82;;;8.24;48.66
51053;BME280;37093;37.716;-122.060;2023-02-27T12:21:05;99882.41;;;8.30;48.31
51053;BME280;37093;37.716;-122.060;2023-02-27T12:23:40;99885.63;;;7.80;49.13
51053;BME280;37093;37.716;-122.060;2023-02-27T12:26:15;99879.48;;;8.15;48.64
51053;BME280;37093;37.716;-122.060;2023-02-27T12:28:52;99879.83;;;8.14;48.55
51053;BME280;37093;37.716;-122.060;2023-02-27T12:31:30;99880.16;;;8.20;48.43
51053;BME280;37093;37.716;-122.060;2023-02-27T12:34:08;99882.97;;;8.16;47.71
51053;BME280;37093;37.716;-122.060;2023-02-27T12:36:39;99883.30;;;7.80;47.89
51053;BME280;37093;37.716;-122.060;2023-02-27T12:39:14;99880.66;;;7.51;49.31
51053;BME280;37093;37.716;-122.060;2023-02-27T12:41:57;99878.04;;;7.63;49.56
51053;BME280;37093;37.716;-122.060;2023-02-27T12:44:42;99875.20;;;7.99;48.88
51053;BME280;37093;37.716;-122.060;2023-02-27T12:47:24;99871.24;;;8.05;48.08
51053;BME280;37093;37.716;-122.060;2023-02-27T12:50:02;99865.22;;;8.01;48.55
51053;BME280;37093;37.716;-122.060;2023-02-27T12:52:40;99866.67;;;8.35;48.21
51053;BME280;37093;37.716;-122.060;2023-02-27T12:55:15;99863.63;;;8.10;48.06
51053;BME280;37093;37.716;-122.060;2023-02-27T12:57:59;99869.61;;;8.36;48.04
51053;BME280;37093;37.716;-122.060;2023-02-27T13:00:39;99873.47;;;8.64;47.82
51053;BME280;37093;37.716;-122.060;2023-02-27T13:03:13;99873.82;;;8.22;46.75
51053;BME280;37093;37.716;-122.060;2023-02-27T13:05:50;99870.30;;;7.87;48.80